Time;durP1;ratioP1;P1;durP2;ratioP2;P2;SDS_P1;SDS_P2;PMS_P1;PMS_P2;Temp;Humidity;BMP_temperature;BMP_pressure;BME280_temperature;BME280_humidity;BME280_pressure;Samples;Min_cycle;Max_cycle;Signal;HPM_P1;HPM_P2
2024/03/14 00:02:25;;;;;;;7.50;6.40;;;11.60;99.90;;;;;;5056118;28;20656;-73
2024/03/14 00:04:51;;;;;;;6.90;6.33;;;11.60;99.90;;;;;;5054619;28;20559;-72
2024/03/14 00:07:17;;;;;;;8.53;6.17;;;11.60;99.90;;;;;;5053938;28;20183;-72
2024/03/14 00:09:43;;;;;;;7.50;6.80;;;11.50;99.90;;;;;;5053970;28;20278;-71
2024/03/14 00:12:10;;;;;;;7.80;7.10;;;11.50;99.90;;;;;;5054252;28;20555;-73
2024/03/14 00:14:38;;;;;;;7.27;6.60;;;11.50;99.90;;;;;;5053825;28;20226;-73
2024/03/14 00:17:04;;;;;;;7.37;6.53;;;11.50;99.90;;;;;;5054513;28;20159;-71
2024/03/14 00:19:29;;;;;;;9.20;6.80;;;11.50;99.90;;;;;;5054262;28;20674;-72
2024/03/14 00:21:56;;;;;;;7.17;6.47;;;11.40;99.90;;;;;;5053932;28;20213;-72
2024/03/14 00:24:22;;;;;;;7.67;6.87;;;11.40;99.90;;;;;;5054020;28;20541;-72
2024/03/14 00:26:47;;;;;;;7.70;6.90;;;11.40;99.90;;;;;;5054434;28;20189;-71
2024/03/14 00:29:13;;;;;;;10.37;7.50;;;11.40;99.90;;;;;;5054261;28;20240;-72
2024/03/14 00:31:39;;;;;;;6.97;6.10;;;11.40;99.90;;;;;;5053562;28;20675;-72
2024/03/14 00:34:07;;;;;;;6.93;6.27;;;11.40;99.90;;;;;;5053251;28;20727;-72
2024/03/14 00:36:37;;;;;;;6.90;5.67;;;11.40;99.90;;;;;;5054069;28;20163;-73
2024/03/14 00:39:06;;;;;;;6.60;6.10;;;11.40;99.90;;;;;;5053969;28;20174;-72
2024/03/14 00:41:34;;;;;;;9.27;6.10;;;11.40;99.90;;;;;;5053479;28;20187;-72
2024/03/14 00:44:01;;;;;;;7.33;5.97;;;11.40;99.90;;;;;;5053349;28;20182;-72
2024/03/14 00:46:27;;;;;;;6.50;5.80;;;11.40;99.90;;;;;;5053734;28;20163;-72
2024/03/14 00:48:53;;;;;;;6.37;5.87;;;11.40;99.90;;;;;;5053767;28;20179;-73
2024/03/14 00:51:19;;;;;;;6.67;5.90;;;11.40;99.90;;;;;;5053724;28;20218;-72
2024/03/14 00:53:45;;;;;;;8.60;5.97;;;11.40;99.90;;;;;;5053450;28;20512;-71
2024/03/14 00:56:15;;;;;;;7.03;6.30;;;11.40;99.90;;;;;;5054374;28;20229;-71
2024/03/14 00:58:41;;;;;;;5.67;5.10;;;11.40;99.90;;;;;;5054971;28;20171;-71
2024/03/14 01:01:08;;;;;;;6.20;5.60;;;11.40;99.90;;;;;;5054963;28;20190;-71
2024/03/14 01:03:34;;;;;;;6.33;5.77;;;11.40;99.90;;;;;;5053193;28;20178;-71
2024/03/14 01:06:01;;;;;;;8.13;6.07;;;11.40;99.90;;;;;;5053278;28;20190;-72
2024/03/14 01:08:27;;;;;;;7.07;5.70;;;11.40;99.90;;;;;;5053251;28;20286;-73
2024/03/14 01:10:53;;;;;;;5.87;5.37;;;11.30;99.90;;;;;;5052378;28;20569;-72
2024/03/14 01:13:19;;;;;;;7.37;5.67;;;11.30;99.90;;;;;;5052964;28;20163;-73
2024/03/14 01:15:45;;;;;;;8.37;6.63;;;11.30;99.90;;;;;;5052736;28;20190;-72
2024/03/14 01:18:10;;;;;;;7.00;6.30;;;11.30;99.90;;;;;;5052835;28;20171;-72
2024/03/14 01:20:38;;;;;;;7.73;6.43;;;11.30;99.90;;;;;;5052989;28;20534;-72
2024/03/14 01:23:07;;;;;;;6.83;6.00;;;11.20;99.90;;;;;;5052773;28;20174;-72
2024/03/14 01:25:36;;;;;;;7.07;6.30;;;11.20;99.90;;;;;;5052616;28;20548;-72
2024/03/14 01:28:01;;;;;;;6.50;5.90;;;11.20;99.90;;;;;;5052726;28;20182;-71
2024/03/14 01:30:28;;;;;;;7.70;6.03;;;11.10;99.90;;;;;;5052448;28;20707;-72
2024/03/14 01:32:53;;;;;;;6.50;5.90;;;11.10;99.90;;;;;;5052559;28;20202;-72
2024/03/14 01:35:19;;;;;;;7.33;6.03;;;11.10;99.90;;;;;;5052281;28;20234;-72
2024/03/14 01:37:45;;;;;;;6.73;6.13;;;11.10;99.90;;;;;;5052441;28;20522;-72
2024/03/14 01:40:12;;;;;;;8.23;6.63;;;11.10;99.90;;;;;;5052610;28;20214;-72
2024/03/14 01:42:40;;;;;;;7.50;6.17;;;11.10;99.90;;;;;;5052597;28;20250;-72
2024/03/14 01:45:10;;;;;;;9.10;6.90;;;11.00;99.90;;;;;;5052218;28;20179;-72
2024/03/14 01:47:37;;;;;;;9.53;6.27;;;11.00;99.90;;;;;;5052647;28;20174;-72
2024/03/14 01:50:05;;;;;;;10.80;6.63;;;11.00;99.90;;;;;;5052518;28;20202;-71
2024/03/14 01:52:34;;;;;;;8.00;6.77;;;10.90;99.90;;;;;;5052329;28;20175;-73
2024/03/14 01:55:00;;;;;;;8.50;6.50;;;10.80;99.90;;;;;;5051760;28;20213;-72
2024/03/14 01:57:26;;;;;;;8.33;6.73;;;10.80;99.90;;;;;;5051857;28;20640;-72
2024/03/14 01:59:53;;;;;;;9.30;7.57;;;10.80;99.90;;;;;;5052070;28;20197;-71
2024/03/14 02:02:23;;;;;;;7.77;7.07;;;10.80;99.90;;;;;;5052639;28;20213;-71
2024/03/14 02:04:49;;;;;;;7.93;6.90;;;10.80;99.90;;;;;;5051990;28;20179;-72
2024/03/14 02:07:16;;;;;;;13.17;8.80;;;10.70;99.90;;;;;;5052514;28;20186;-72
2024/03/14 02:09:45;;;;;;;9.40;7.43;;;10.70;99.90;;;;;;5051889;28;20203;-72
2024/03/14 02:12:10;;;;;;;13.03;8.20;;;10.60;99.90;;;;;;5052468;28;20174;-72
2024/03/14 02:14:36;;;;;;;11.20;8.07;;;10.60;99.90;;;;;;5052253;28;20202;-72
2024/03/14 02:17:05;;;;;;;12.23;8.67;;;10.60;99.90;;;;;;5052118;28;20647;-72
2024/03/14 02:19:32;;;;;;;12.07;8.70;;;10.60;99.90;;;;;;5051828;28;20167;-73
2024/03/14 02:22:02;;;;;;;14.93;10.53;;;10.60;99.90;;;;;;5051108;28;20167;-73
2024/03/14 02:24:27;;;;;;;17.53;11.33;;;10.50;99.90;;;;;;5051852;28;20166;-71
2024/03/14 02:26:55;;;;;;;20.27;11.97;;;10.50;99.90;;;;;;5051740;28;20591;-71
2024/03/14 02:29:21;;;;;;;21.10;12.40;;;10.40;99.90;;;;;;5051736;28;20553;-73
2024/03/14 02:31:51;;;;;;;15.67;11.40;;;10.40;99.90;;;;;;5051735;28;20186;-72
2024/03/14 02:34:16;;;;;;;11.93;8.97;;;10.30;99.90;;;;;;5051399;28;20199;-73
2024/03/14 02:36:44;;;;;;;15.07;9.83;;;10.30;99.90;;;;;;5051640;28;20170;-71
2024/03/14 02:39:10;;;;;;;24.43;13.90;;;10.20;99.90;;;;;;5051705;28;20173;-71
2024/03/14 02:41:36;;;;;;;17.30;11.27;;;10.10;99.90;;;;;;5051558;28;20225;-71
2024/03/14 02:44:14;;;;;;;11.60;9.43;;;10.00;99.90;;;;;;5051458;28;20648;-72
2024/03/14 02:46:40;;;;;;;12.07;9.50;;;9.90;99.90;;;;;;5051659;28;20178;-72
2024/03/14 02:49:06;;;;;;;11.57;8.93;;;9.80;99.90;;;;;;5051612;28;20515;-72
2024/03/14 02:51:31;;;;;;;18.20;12.67;;;9.70;99.90;;;;;;5051174;28;20285;-74
2024/03/14 02:53:57;;;;;;;15.90;10.90;;;9.70;99.90;;;;;;5051418;28;20202;-73
2024/03/14 02:56:22;;;;;;;15.63;10.23;;;9.60;99.90;;;;;;5051674;28;20198;-72
2024/03/14 02:58:49;;;;;;;11.23;9.37;;;9.50;99.90;;;;;;5051227;28;20239;-73
2024/03/14 03:01:14;;;;;;;12.40;9.63;;;9.50;99.90;;;;;;5051484;28;20179;-73
2024/03/14 03:03:41;;;;;;;11.47;9.77;;;9.30;99.90;;;;;;5051224;28;20186;-72
2024/03/14 03:06:11;;;;;;;9.70;8.77;;;9.30;99.90;;;;;;5051100;28;20232;-72
2024/03/14 03:08:37;;;;;;;13.30;8.73;;;9.20;99.90;;;;;;5051630;28;20652;-72
2024/03/14 03:11:02;;;;;;;9.80;8.83;;;9.10;99.90;;;;;;5051528;28;20187;-72
2024/03/14 03:13:28;;;;;;;12.83;10.37;;;9.10;99.90;;;;;;5050847;28;20167;-73
2024/03/14 03:15:54;;;;;;;16.53;9.77;;;9.00;99.90;;;;;;5051199;28;20233;-73
2024/03/14 03:18:20;;;;;;;24.63;12.70;;;8.90;99.90;;;;;;5051448;28;20202;-72
2024/03/14 03:20:46;;;;;;;79.50;28.83;;;8.90;99.90;;;;;;5052518;28;20610;-72
2024/03/14 03:23:12;;;;;;;56.27;21.60;;;8.90;99.90;;;;;;5052254;28;20167;-73
2024/03/14 03:25:38;;;;;;;39.37;17.83;;;8.90;99.90;;;;;;5051096;28;20261;-73
2024/03/14 03:28:14;;;;;;;38.97;18.23;;;8.90;99.90;;;;;;5051328;28;20668;-73
2024/03/14 03:30:40;;;;;;;28.93;16.47;;;8.80;99.90;;;;;;5050809;28;20195;-73
2024/03/14 03:33:11;;;;;;;31.67;16.73;;;8.80;99.90;;;;;;5052415;28;20719;-73
2024/03/14 03:35:42;;;;;;;19.03;13.07;;;8.80;99.90;;;;;;5055030;28;20544;-73
2024/03/14 03:38:08;;;;;;;24.93;13.53;;;8.80;99.90;;;;;;5055256;28;20229;-73
2024/03/14 03:40:37;;;;;;;20.53;11.83;;;8.70;99.90;;;;;;5055093;28;20218;-73
2024/03/14 03:43:03;;;;;;;15.40;11.23;;;8.70;99.90;;;;;;5054927;28;20178;-73
2024/03/14 03:45:29;;;;;;;14.90;11.60;;;8.60;99.90;;;;;;5054713;28;20173;-73
2024/03/14 03:47:55;;;;;;;16.00;12.00;;;8.60;99.90;;;;;;5054410;28;20294;-73
2024/03/14 03:50:23;;;;;;;17.00;12.10;;;8.60;99.90;;;;;;5055044;28;20230;-73
2024/03/14 03:52:49;;;;;;;17.63;12.00;;;8.60;99.90;;;;;;5054626;28;20624;-73
2024/03/14 03:55:17;;;;;;;15.17;12.17;;;8.60;99.90;;;;;;5054550;28;20280;-73
2024/03/14 03:57:46;;;;;;;14.73;11.47;;;8.60;99.90;;;;;;5054454;28;20181;-73
2024/03/14 04:02:57;;;;;;;19.53;12.10;;;8.70;99.90;;;;;;5054149;28;20181;-73
2024/03/14 04:05:25;;;;;;;15.90;12.20;;;8.60;99.90;;;;;;5054303;28;20218;-73
2024/03/14 04:07:51;;;;;;;13.83;11.33;;;8.60;99.90;;;;;;5054358;28;20179;-73
2024/03/14 04:10:17;;;;;;;16.93;12.13;;;8.60;99.90;;;;;;5054553;28;20206;-73
2024/03/14 04:12:44;;;;;;;15.03;11.57;;;8.60;99.90;;;;;;5054612;28;20179;-72
2024/03/14 04:15:11;;;;;;;25.20;17.30;;;8.60;99.90;;;;;;5054800;28;20198;-72
2024/03/14 04:17:37;;;;;;;35.27;20.23;;;8.60;99.90;;;;;;5054899;28;20620;-72
2024/03/14 04:20:13;;;;;;;18.37;14.00;;;8.50;99.90;;;;;;5055115;28;20209;-72
2024/03/14 04:22:42;;;;;;;22.77;15.00;;;8.50;99.90;;;;;;5054972;28;20181;-71
2024/03/14 04:25:11;;;;;;;19.23;14.63;;;8.50;99.90;;;;;;5054023;28;20175;-72
2024/03/14 04:27:46;;;;;;;19.47;13.67;;;8.50;99.90;;;;;;5054691;28;20718;-73
2024/03/14 04:30:16;;;;;;;18.57;13.10;;;8.50;99.90;;;;;;5054070;28;20206;-72
2024/03/14 04:32:44;;;;;;;20.97;13.60;;;8.50;99.90;;;;;;5053900;28;20187;-72
2024/03/14 04:35:10;;;;;;;24.40;16.37;;;8.50;99.90;;;;;;5053443;28;20206;-72
2024/03/14 04:37:38;;;;;;;20.37;13.83;;;8.50;99.90;;;;;;5053833;28;20324;-73
2024/03/14 04:40:11;;;;;;;18.37;13.27;;;8.50;99.90;;;;;;5054443;28;20253;-72
2024/03/14 04:42:40;;;;;;;18.80;12.50;;;8.50;99.90;;;;;;5053868;28;20202;-72
2024/03/14 04:45:06;;;;;;;18.07;12.73;;;8.50;99.90;;;;;;5052380;28;20185;-72
2024/03/14 04:47:32;;;;;;;19.87;13.77;;;8.40;99.90;;;;;;5053628;28;20671;-72
2024/03/14 04:49:58;;;;;;;15.97;14.03;;;8.40;99.90;;;;;;5053256;28;20203;-72
2024/03/14 04:52:23;;;;;;;17.10;13.80;;;8.40;99.90;;;;;;5053364;28;20547;-72
2024/03/14 04:54:49;;;;;;;15.30;12.50;;;8.30;99.90;;;;;;5053095;28;20285;-72
2024/03/14 04:57:15;;;;;;;13.67;12.27;;;8.30;99.90;;;;;;5053467;28;20182;-73
2024/03/14 04:59:40;;;;;;;15.77;12.57;;;8.30;99.90;;;;;;5053317;28;20193;-72
2024/03/14 05:02:08;;;;;;;17.47;13.50;;;8.30;99.90;;;;;;5053294;28;20304;-72
2024/03/14 05:04:34;;;;;;;16.20;13.10;;;8.30;99.90;;;;;;5053064;28;20179;-72
2024/03/14 05:07:00;;;;;;;22.03;14.50;;;8.30;99.90;;;;;;5053166;28;20530;-72
2024/03/14 05:09:27;;;;;;;17.13;13.30;;;8.20;99.90;;;;;;5053308;28;20210;-72
2024/03/14 05:11:52;;;;;;;20.03;12.97;;;8.20;99.90;;;;;;5053040;28;20167;-72
2024/03/14 05:14:20;;;;;;;16.53;12.60;;;8.20;99.90;;;;;;5052822;28;20230;-72
2024/03/14 05:16:45;;;;;;;18.67;13.07;;;8.20;99.90;;;;;;5053216;28;20674;-72
2024/03/14 05:19:15;;;;;;;18.80;13.23;;;8.20;99.90;;;;;;5053120;28;20257;-72
2024/03/14 05:21:45;;;;;;;13.90;12.43;;;8.10;99.90;;;;;;5052967;28;20659;-72
2024/03/14 05:24:11;;;;;;;15.50;12.77;;;8.10;99.90;;;;;;5052602;28;20182;-71
2024/03/14 05:26:36;;;;;;;17.77;12.37;;;8.00;99.90;;;;;;5053568;28;20233;-71
2024/03/14 05:29:02;;;;;;;22.40;13.70;;;8.00;99.90;;;;;;5052743;28;20189;-71
2024/03/14 05:31:27;;;;;;;18.10;13.37;;;8.00;99.90;;;;;;5052981;28;20214;-71
2024/03/14 05:33:53;;;;;;;15.77;12.87;;;7.90;99.90;;;;;;5052506;28;20257;-73
2024/03/14 05:36:19;;;;;;;15.40;12.60;;;8.00;99.90;;;;;;5053075;28;20182;-72
2024/03/14 05:38:44;;;;;;;18.17;12.20;;;7.90;99.90;;;;;;5051464;28;20187;-72
2024/03/14 05:41:10;;;;;;;17.40;12.73;;;7.90;99.90;;;;;;5052578;28;20194;-72
2024/03/14 05:43:35;;;;;;;15.80;12.70;;;7.80;99.90;;;;;;5052178;28;20336;-72
2024/03/14 05:46:04;;;;;;;14.60;11.73;;;7.80;99.90;;;;;;5052825;28;20179;-71
2024/03/14 05:48:30;;;;;;;17.20;12.90;;;7.70;99.90;;;;;;5053072;28;20186;-71
2024/03/14 05:50:56;;;;;;;18.40;12.50;;;7.70;99.90;;;;;;5053217;28;20199;-71
2024/03/14 05:53:26;;;;;;;16.33;12.57;;;7.60;99.90;;;;;;5052426;28;20547;-72
2024/03/14 05:55:52;;;;;;;19.60;13.37;;;7.60;99.90;;;;;;5051529;28;20275;-72
2024/03/14 05:58:18;;;;;;;23.27;14.47;;;7.50;99.90;;;;;;5052404;28;20753;-72
2024/03/14 06:00:43;;;;;;;21.73;13.43;;;7.60;99.90;;;;;;5052316;28;20544;-71
2024/03/14 06:03:12;;;;;;;18.73;14.80;;;7.60;99.90;;;;;;5051881;28;20221;-71
2024/03/14 06:05:37;;;;;;;22.67;15.97;;;7.60;99.90;;;;;;5052110;28;20179;-71
2024/03/14 06:08:03;;;;;;;22.47;15.67;;;7.70;99.90;;;;;;5051836;28;20230;-71
2024/03/14 06:10:29;;;;;;;18.30;14.90;;;7.70;99.90;;;;;;5052075;28;20193;-71
2024/03/14 06:12:54;;;;;;;23.80;14.47;;;7.70;99.90;;;;;;5052125;28;20182;-71
2024/03/14 06:15:20;;;;;;;19.93;13.97;;;7.70;99.90;;;;;;5051499;28;20245;-72
2024/03/14 06:17:50;;;;;;;19.90;14.93;;;7.70;99.90;;;;;;5051953;28;20163;-71
2024/03/14 06:20:18;;;;;;;19.40;14.07;;;7.70;99.90;;;;;;5052062;28;20559;-71
2024/03/14 06:22:44;;;;;;;18.93;15.40;;;7.80;99.90;;;;;;5052622;28;20166;-71
2024/03/14 06:25:10;;;;;;;21.13;14.33;;;7.70;99.90;;;;;;5052405;28;20206;-71
2024/03/14 06:27:41;;;;;;;18.93;15.47;;;7.80;99.90;;;;;;5053436;28;20186;-72
2024/03/14 06:30:11;;;;;;;16.83;13.17;;;7.80;99.90;;;;;;5052419;28;20578;-71
2024/03/14 06:32:37;;;;;;;20.13;14.13;;;7.80;99.90;;;;;;5052921;28;20198;-71
2024/03/14 06:35:04;;;;;;;18.70;14.27;;;7.80;99.90;;;;;;5051977;28;20211;-71
2024/03/14 06:37:30;;;;;;;20.97;13.93;;;7.90;99.90;;;;;;5051975;28;20545;-72
2024/03/14 06:39:55;;;;;;;21.10;14.93;;;7.90;99.90;;;;;;5051456;28;20197;-73
2024/03/14 06:42:21;;;;;;;17.47;14.23;;;8.00;99.90;;;;;;5051791;28;20175;-72
2024/03/14 06:44:47;;;;;;;16.00;13.70;;;8.10;99.90;;;;;;5051164;28;20171;-71
2024/03/14 06:47:13;;;;;;;19.03;14.23;;;8.20;99.90;;;;;;5051209;28;20548;-71
2024/03/14 06:49:42;;;;;;;17.13;13.70;;;8.40;99.90;;;;;;5051067;28;20210;-71
2024/03/14 06:52:09;;;;;;;15.90;13.43;;;8.60;99.90;;;;;;5051377;28;20175;-71
2024/03/14 06:54:35;;;;;;;16.70;13.70;;;8.70;99.90;;;;;;5051143;28;20672;-72
2024/03/14 06:57:01;;;;;;;20.63;14.57;;;8.90;99.90;;;;;;5051409;28;20167;-72
2024/03/14 06:59:27;;;;;;;19.93;14.30;;;9.20;99.90;;;;;;5051504;28;20224;-72
2024/03/14 07:01:55;;;;;;;20.80;14.70;;;9.60;99.90;;;;;;5050506;28;20178;-73
2024/03/14 07:04:21;;;;;;;18.63;13.77;;;10.10;99.90;;;;;;5051484;28;20175;-72
2024/03/14 07:06:47;;;;;;;13.97;12.50;;;10.80;99.90;;;;;;5051418;28;20182;-72
2024/03/14 07:09:17;;;;;;;15.80;12.20;;;11.30;99.90;;;;;;5050852;28;20495;-73
2024/03/14 07:11:44;;;;;;;15.77;10.53;;;11.80;99.90;;;;;;5051275;28;20171;-72
2024/03/14 07:14:09;;;;;;;11.03;9.80;;;12.20;99.90;;;;;;5050820;28;20198;-72
2024/03/14 07:16:38;;;;;;;8.97;8.17;;;12.50;99.90;;;;;;5051333;28;20555;-72
2024/03/14 07:19:06;;;;;;;9.37;8.40;;;12.80;99.90;;;;;;5051154;28;20190;-73
2024/03/14 07:21:33;;;;;;;7.53;6.83;;;13.20;99.90;;;;;;5051356;28;20198;-72
2024/03/14 07:23:59;;;;;;;10.20;6.93;;;13.30;99.90;;;;;;5050417;28;20186;-72
2024/03/14 07:26:32;;;;;;;8.20;6.50;;;13.40;99.90;;;;;;5049814;28;20236;-72
2024/03/14 07:28:58;;;;;;;7.03;6.33;;;13.30;99.90;;;;;;5051122;28;20281;-72
2024/03/14 07:31:28;;;;;;;8.93;6.10;;;13.20;99.90;;;;;;5052585;28;20379;-72
2024/03/14 07:33:54;;;;;;;9.33;6.30;;;13.00;99.90;;;;;;5053290;28;20593;-72
2024/03/14 07:36:19;;;;;;;6.73;6.00;;;13.00;99.90;;;;;;5052910;28;20167;-71
2024/03/14 07:38:47;;;;;;;8.13;6.57;;;12.90;99.90;;;;;;5050668;28;20190;-71
2024/03/14 07:41:23;;;;;;;7.83;5.83;;;12.90;99.90;;;;;;5049552;28;20305;-71
2024/03/14 07:43:53;;;;;;;5.83;5.33;;;13.00;99.90;;;;;;5052115;28;20201;-72
2024/03/14 07:46:19;;;;;;;8.40;5.70;;;13.20;99.90;;;;;;5052576;28;20175;-72
2024/03/14 07:48:49;;;;;;;5.90;5.40;;;13.50;99.90;;;;;;5054425;28;20175;-72
2024/03/14 07:51:15;;;;;;;6.03;5.47;;;13.80;99.90;;;;;;5056134;28;20270;-72
2024/03/14 07:53:42;;;;;;;5.63;5.07;;;14.10;99.90;;;;;;5052578;28;20254;-71
2024/03/14 07:56:09;;;;;;;7.17;4.80;;;14.50;99.90;;;;;;5054410;28;20234;-72
2024/03/14 07:58:38;;;;;;;12.00;5.07;;;14.90;99.90;;;;;;5055435;28;20182;-72
2024/03/14 08:01:09;;;;;;;5.50;5.00;;;15.10;99.90;;;;;;5055934;28;20679;-72
2024/03/14 08:03:42;;;;;;;6.40;5.40;;;15.30;99.90;;;;;;5054792;28;20251;-71
2024/03/14 08:06:10;;;;;;;5.23;4.73;;;15.50;99.90;;;;;;5054849;28;20201;-72
2024/03/14 08:08:36;;;;;;;5.13;4.63;;;15.60;99.90;;;;;;5053276;28;20178;-72
2024/03/14 08:11:06;;;;;;;4.90;4.33;;;15.60;99.90;;;;;;5051500;28;20568;-72
2024/03/14 08:13:33;;;;;;;5.27;4.77;;;15.50;99.90;;;;;;5050697;28;20623;-73
2024/03/14 08:16:08;;;;;;;6.00;4.40;;;15.40;99.90;;;;;;5049509;28;20573;-72
2024/03/14 08:18:43;;;;;;;5.83;4.30;;;15.20;99.90;;;;;;5051523;28;20220;-72
2024/03/14 08:21:16;;;;;;;4.47;4.07;;;15.20;99.90;;;;;;5052982;28;20562;-70
2024/03/14 08:23:43;;;;;;;5.37;4.90;;;15.00;99.90;;;;;;5053827;28;20174;-71
2024/03/14 08:26:09;;;;;;;4.70;4.30;;;14.80;99.90;;;;;;5053530;28;20186;-71
2024/03/14 08:28:41;;;;;;;6.03;4.97;;;14.50;99.90;;;;;;5054117;28;20185;-72
2024/03/14 08:31:14;;;;;;;6.17;4.70;;;14.40;99.90;;;;;;5053680;28;20264;-71
2024/03/14 08:33:40;;;;;;;7.10;5.27;;;14.20;99.90;;;;;;5054823;28;20586;-71
2024/03/14 08:36:06;;;;;;;5.43;4.90;;;14.00;99.90;;;;;;5053831;28;20640;-72
2024/03/14 08:38:33;;;;;;;6.53;4.60;;;13.90;99.90;;;;;;5053903;28;20611;-72
2024/03/14 08:40:59;;;;;;;5.30;4.90;;;14.00;99.90;;;;;;5053288;28;20251;-72
2024/03/14 08:43:25;;;;;;;5.67;5.07;;;14.10;99.90;;;;;;5053906;28;20171;-72
2024/03/14 08:45:55;;;;;;;6.67;4.73;;;14.20;99.90;;;;;;5053646;28;20632;-71
2024/03/14 08:48:21;;;;;;;6.03;4.80;;;14.40;99.90;;;;;;5053829;28;20265;-71
2024/03/14 08:50:47;;;;;;;7.00;4.80;;;14.70;99.90;;;;;;5053790;28;20333;-72
2024/03/14 08:53:12;;;;;;;6.77;4.73;;;15.10;99.90;;;;;;5053663;28;20178;-71
2024/03/14 08:55:54;;;;;;;4.93;4.53;;;15.40;99.90;;;;;;5053722;28;20217;-71
2024/03/14 08:58:21;;;;;;;5.33;4.83;;;15.60;99.90;;;;;;5054091;28;20194;-71
2024/03/14 09:00:47;;;;;;;6.80;4.63;;;15.70;99.90;;;;;;5053679;28;20186;-71
2024/03/14 09:03:15;;;;;;;5.27;4.77;;;16.00;99.90;;;;;;5053202;28;20258;-70
2024/03/14 09:05:42;;;;;;;6.03;4.63;;;16.30;99.90;;;;;;5053347;28;20178;-70
2024/03/14 09:08:08;;;;;;;5.83;4.57;;;16.50;99.90;;;;;;5053225;28;20194;-71
2024/03/14 09:10:33;;;;;;;4.87;4.37;;;16.70;99.90;;;;;;5054849;28;20593;-71
2024/03/14 09:13:00;;;;;;;6.80;4.50;;;16.80;99.90;;;;;;5053264;28;20547;-71
2024/03/14 09:15:25;;;;;;;6.33;4.40;;;16.90;99.90;;;;;;5052769;28;20284;-70
2024/03/14 09:17:52;;;;;;;6.37;4.40;;;17.20;99.90;;;;;;5053329;28;20652;-72
2024/03/14 09:20:19;;;;;;;7.57;5.23;;;17.60;99.90;;;;;;5053931;28;20195;-72
2024/03/14 09:22:53;;;;;;;6.57;4.27;;;17.80;99.90;;;;;;5053923;28;20182;-71
2024/03/14 09:25:20;;;;;;;4.83;4.23;;;17.80;99.90;;;;;;5054217;28;20376;-71
2024/03/14 09:27:45;;;;;;;4.43;4.03;;;17.70;99.90;;;;;;5053031;28;20229;-71
2024/03/14 09:30:12;;;;;;;4.63;4.13;;;17.80;99.90;;;;;;5052560;28;20194;-70
2024/03/14 09:32:40;;;;;;;6.17;4.50;;;17.70;99.90;;;;;;5052561;28;20202;-70
2024/03/14 09:35:07;;;;;;;7.07;4.70;;;17.60;99.90;;;;;;5052303;28;20214;-71
2024/03/14 09:37:33;;;;;;;5.40;4.60;;;17.70;99.90;;;;;;5053202;28;20162;-71
2024/03/14 09:39:59;;;;;;;4.33;3.93;;;17.80;99.90;;;;;;5052660;28;20234;-70
2024/03/14 09:42:25;;;;;;;6.93;4.50;;;17.80;99.90;;;;;;5052773;28;20207;-70
2024/03/14 09:44:52;;;;;;;4.50;4.10;;;18.00;99.90;;;;;;5052944;28;20171;-70
2024/03/14 09:47:38;;;;;;;6.17;4.80;;;18.20;99.90;;;;;;5052702;28;20182;-70
2024/03/14 09:50:09;;;;;;;4.67;4.27;;;18.30;99.90;;;;;;5051020;28;20210;-70
2024/03/14 09:52:35;;;;;;;5.00;4.20;;;18.50;99.90;;;;;;5052612;28;20186;-70
2024/03/14 09:55:03;;;;;;;5.97;4.03;;;18.90;99.90;;;;;;5052331;28;20293;-71
2024/03/14 09:57:32;;;;;;;6.35;4.07;;;19.40;99.90;;;;;;5052733;28;20178;-71
2024/03/14 09:59:58;;;;;;;4.85;4.35;;;19.60;99.90;;;;;;5052567;28;20214;-71
2024/03/14 10:02:30;;;;;;;5.40;4.90;;;19.90;99.90;;;;;;5051753;28;20186;-71
2024/03/14 10:04:56;;;;;;;5.17;4.57;;;19.90;99.90;;;;;;5052123;28;20201;-71
2024/03/14 10:07:21;;;;;;;88.13;84.37;;;19.60;99.90;;;;;;5051886;28;20722;-71
2024/03/14 10:09:48;;;;;;;4.82;4.30;;;19.40;99.90;;;;;;5052572;28;20279;-71
2024/03/14 10:12:14;;;;;;;4.80;4.40;;;19.20;99.90;;;;;;5052575;28;20701;-70
2024/03/14 10:14:41;;;;;;;4.30;4.00;;;19.20;99.90;;;;;;5052173;28;20573;-70
2024/03/14 10:17:13;;;;;;;5.00;4.53;;;19.20;99.90;;;;;;5052080;28;20171;-71
2024/03/14 10:19:40;;;;;;;4.50;4.10;;;19.20;99.90;;;;;;5052050;28;20242;-71
2024/03/14 10:22:07;;;;;;;4.90;4.50;;;19.20;99.90;;;;;;5051521;28;20309;-72
2024/03/14 10:24:36;;;;;;;5.93;4.53;;;19.00;99.90;;;;;;5051710;28;20171;-71
2024/03/14 10:27:05;;;;;;;4.57;4.18;;;19.00;99.90;;;;;;5051754;28;20175;-71
2024/03/14 10:29:36;;;;;;;5.70;4.40;;;18.90;99.90;;;;;;5052019;28;20687;-70
2024/03/14 10:32:03;;;;;;;4.93;4.53;;;18.90;99.90;;;;;;5051453;28;20205;-70
2024/03/14 10:34:29;;;;;;;4.37;3.70;;;18.80;99.90;;;;;;5050034;28;20206;-71
2024/03/14 10:36:55;;;;;;;3.57;3.27;;;18.80;99.90;;;;;;5051602;28;20182;-72
2024/03/14 10:39:23;;;;;;;5.07;3.93;;;18.90;99.90;;;;;;5051766;28;20504;-71
2024/03/14 10:41:49;;;;;;;3.97;3.67;;;18.70;99.90;;;;;;5052034;28;20175;-71
2024/03/14 10:44:21;;;;;;;4.30;4.00;;;18.30;99.90;;;;;;5050646;28;20175;-70
2024/03/14 10:46:51;;;;;;;5.30;4.80;;;17.80;99.90;;;;;;5051760;28;20185;-71
2024/03/14 10:49:24;;;;;;;4.83;4.43;;;17.50;99.90;;;;;;5051701;28;20190;-70
2024/03/14 10:51:53;;;;;;;4.10;3.70;;;17.40;99.90;;;;;;5051576;28;20644;-70
2024/03/14 10:54:23;;;;;;;4.63;3.60;;;17.40;99.90;;;;;;5051066;28;20195;-70
2024/03/14 10:56:49;;;;;;;4.17;3.87;;;17.40;99.90;;;;;;5051527;28;20163;-70
2024/03/14 10:59:20;;;;;;;5.20;3.77;;;17.50;99.90;;;;;;5051227;28;20632;-71
2024/03/14 11:01:55;;;;;;;6.27;3.97;;;17.60;99.90;;;;;;5051671;28;20185;-71
2024/03/14 11:04:23;;;;;;;4.57;4.20;;;17.60;99.90;;;;;;5051084;28;20184;-71
2024/03/14 11:06:50;;;;;;;4.30;3.90;;;17.60;99.90;;;;;;5051497;28;20209;-69
2024/03/14 11:09:26;;;;;;;5.57;3.50;;;17.70;99.90;;;;;;5051409;28;20171;-70
2024/03/14 11:12:03;;;;;;;3.93;3.50;;;17.90;99.90;;;;;;5051628;28;20178;-70
2024/03/14 11:14:37;;;;;;;4.60;3.27;;;18.30;99.90;;;;;;5050894;28;20251;-71
2024/03/14 11:17:03;;;;;;;5.50;3.90;;;18.60;99.90;;;;;;5051726;28;20217;-69
2024/03/14 11:19:30;;;;;;;4.20;3.23;;;18.50;99.90;;;;;;5051531;28;20605;-70
2024/03/14 11:21:57;;;;;;;3.90;3.50;;;18.30;99.90;;;;;;5051284;28;20257;-70
2024/03/14 11:24:29;;;;;;;3.37;3.10;;;18.40;99.90;;;;;;5050958;28;20175;-70
2024/03/14 11:26:58;;;;;;;3.60;3.30;;;18.60;99.90;;;;;;5051078;28;20281;-70
2024/03/14 11:29:25;;;;;;;4.47;3.90;;;18.90;99.90;;;;;;5051417;28;20548;-71
2024/03/14 11:32:16;;;;;;;4.13;3.73;;;19.20;99.90;;;;;;5051860;28;20277;-70
2024/03/14 11:34:42;;;;;;;5.47;4.23;;;19.40;99.90;;;;;;5051926;28;20749;-71
2024/03/14 11:37:08;;;;;;;4.57;3.20;;;19.60;99.90;;;;;;5051388;28;20549;-71
2024/03/14 11:39:37;;;;;;;5.43;3.70;;;19.90;99.90;;;;;;5051672;28;20175;-70
2024/03/14 11:42:11;;;;;;;4.43;3.90;;;19.80;99.90;;;;;;5051190;28;20179;-70
2024/03/14 11:44:45;;;;;;;4.70;3.55;;;19.60;99.90;;;;;;5051020;28;20180;-71
2024/03/14 11:47:34;;;;;;;3.70;3.33;;;19.50;99.90;;;;;;5052509;28;20199;-70
2024/03/14 11:50:00;;;;;;;3.15;2.92;;;19.70;99.90;;;;;;5052735;28;20202;-70
2024/03/14 11:52:26;;;;;;;3.77;3.47;;;20.00;99.90;;;;;;5050940;28;20190;-70
2024/03/14 11:54:57;;;;;;;3.50;3.20;;;20.20;99.90;;;;;;5053743;28;20691;-70
2024/03/14 11:57:25;;;;;;;3.57;3.20;;;20.40;99.90;;;;;;5054543;28;20171;-71
2024/03/14 11:59:51;;;;;;;3.60;3.30;;;20.50;99.90;;;;;;5055845;28;20556;-70
2024/03/14 12:02:16;;;;;;;3.60;3.33;;;20.60;99.90;;;;;;5055850;28;20182;-70
2024/03/14 12:04:42;;;;;;;3.83;3.40;;;20.80;99.90;;;;;;5055504;28;20714;-70
2024/03/14 12:07:08;;;;;;;3.75;3.03;;;20.80;99.90;;;;;;5055539;28;20179;-70
2024/03/14 12:09:35;;;;;;;3.95;3.50;;;20.80;99.90;;;;;;5054825;28;20187;-71
2024/03/14 12:12:01;;;;;;;3.10;2.90;;;20.80;99.90;;;;;;5054181;28;20181;-71
2024/03/14 12:14:28;;;;;;;3.63;3.00;;;20.60;99.90;;;;;;5054353;28;20211;-70
2024/03/14 12:16:54;;;;;;;3.42;3.13;;;20.50;99.90;;;;;;5055084;28;20171;-70
2024/03/14 12:19:20;;;;;;;3.58;3.22;;;20.50;99.90;;;;;;5054799;28;20170;-69
2024/03/14 12:21:54;;;;;;;3.45;3.15;;;20.60;99.90;;;;;;5052906;28;20228;-71
2024/03/14 12:24:23;;;;;;;3.13;2.70;;;20.70;99.90;;;;;;5052565;28;20277;-71
2024/03/14 12:26:53;;;;;;;3.15;2.58;;;20.70;99.90;;;;;;5054882;28;20529;-71
2024/03/14 12:29:20;;;;;;;4.10;2.80;;;20.70;99.90;;;;;;5054635;28;20186;-71
2024/03/14 12:31:47;;;;;;;2.97;2.78;;;20.70;99.90;;;;;;5055288;28;20282;-71
2024/03/14 12:34:13;;;;;;;3.72;3.42;;;20.60;99.90;;;;;;5054798;28;20183;-71
2024/03/14 12:36:39;;;;;;;4.47;3.13;;;20.50;99.90;;;;;;5054872;28;20182;-72
2024/03/14 12:39:08;;;;;;;4.90;3.08;;;20.40;99.90;;;;;;5054687;28;20170;-71
2024/03/14 12:41:36;;;;;;;5.75;3.08;;;20.40;99.90;;;;;;5054752;28;20251;-69
2024/03/14 12:44:06;;;;;;;3.42;2.60;;;20.40;99.90;;;;;;5053997;28;20433;-70
2024/03/14 12:46:32;;;;;;;3.92;2.70;;;20.50;99.90;;;;;;5053999;28;20177;-70
2024/03/14 12:49:00;;;;;;;4.28;3.22;;;20.80;99.90;;;;;;5054185;28;20171;-70